sensor_id;sensor_type;location;lat;lon;timestamp;temperature;humidity
40932;DHT22;36257;46.052;12.540;2023-03-14T00:02:18;11.30;93.10
40932;DHT22;36257;46.052;12.540;2023-03-14T00:04:44;11.30;93.10
40932;DHT22;36257;46.052;12.540;2023-03-14T00:07:11;11.30;93.40
40932;DHT22;36257;46.052;12.540;2023-03-14T00:09:37;11.30;93.80
40932;DHT22;36257;46.052;12.540;2023-03-14T00:12:03;11.30;94.00
40932;DHT22;36257;46.052;12.540;2023-03-14T00:14:31;11.30;93.50
40932;DHT22;36257;46.052;12.540;2023-03-14T00:16:56;11.30;93.30
40932;DHT22;36257;46.052;12.540;2023-03-14T00:19:22;11.30;93.10
40932;DHT22;36257;46.052;12.540;2023-03-14T00:21:48;11.30;93.90
40932;DHT22;36257;46.052;12.540;2023-03-14T00:24:13;11.30;94.00
40932;DHT22;36257;46.052;12.540;2023-03-14T00:26:39;11.20;94.70
40932;DHT22;36257;46.052;12.540;2023-03-14T00:29:05;11.20;95.30
40932;DHT22;36257;46.052;12.540;2023-03-14T00:31:30;11.10;95.60
40932;DHT22;36257;46.052;12.540;2023-03-14T00:33:56;11.10;95.70
40932;DHT22;36257;46.052;12.540;2023-03-14T00:36:22;11.20;96.50
40932;DHT22;36257;46.052;12.540;2023-03-14T00:38:50;11.10;97.40
40932;DHT22;36257;46.052;12.540;2023-03-14T00:41:21;11.10;97.80
40932;DHT22;36257;46.052;12.540;2023-03-14T00:43:51;11.10;97.70
40932;DHT22;36257;46.052;12.540;2023-03-14T00:46:18;11.00;99.30
40932;DHT22;36257;46.052;12.540;2023-03-14T00:48:45;10.90;99.90
40932;DHT22;36257;46.052;12.540;2023-03-14T00:51:11;10.80;99.90
40932;DHT22;36257;46.052;12.540;2023-03-14T00:53:39;10.70;99.90
40932;DHT22;36257;46.052;12.540;2023-03-14T00:56:08;10.70;99.90
40932;DHT22;36257;46.052;12.540;2023-03-14T00:58:34;10.60;99.90
40932;DHT22;36257;46.052;12.540;2023-03-14T01:01:09;10.60;99.90
40932;DHT22;36257;46.052;12.540;2023-03-14T01:03:35;10.50;99.90
40932;DHT22;36257;46.052;12.540;2023-03-14T01:06:19;10.60;99.90
40932;DHT22;36257;46.052;12.540;2023-03-14T01:08:45;10.70;99.90
40932;DHT22;36257;46.052;12.540;2023-03-14T01:11:13;10.60;99.90
40932;DHT22;36257;46.052;12.540;2023-03-14T01:13:39;10.60;99.90
40932;DHT22;36257;46.052;12.540;2023-03-14T01:16:07;10.60;99.90
40932;DHT22;36257;46.052;12.540;2023-03-14T01:18:34;10.40;99.90
40932;DHT22;36257;46.052;12.540;2023-03-14T01:21:08;10.40;99.90
40932;DHT22;36257;46.052;12.540;2023-03-14T01:23:34;10.40;99.90
40932;DHT22;36257;46.052;12.540;2023-03-14T01:26:00;10.40;99.90
40932;DHT22;36257;46.052;12.540;2023-03-14T01:28:26;10.40;99.90
40932;DHT22;36257;46.052;12.540;2023-03-14T01:30:51;10.40;99.90
40932;DHT22;36257;46.052;12.540;2023-03-14T01:33:17;10.40;99.90
40932;DHT22;36257;46.052;12.540;2023-03-14T01:35:42;10.40;99.90
40932;DHT22;36257;46.052;12.540;2023-03-14T01:38:08;10.50;99.90
40932;DHT22;36257;46.052;12.540;2023-03-14T01:40:40;10.40;99.90
40932;DHT22;36257;46.052;12.540;2023-03-14T01:43:16;10.50;99.90
40932;DHT22;36257;46.052;12.540;2023-03-14T01:48:35;10.50;99.90
40932;DHT22;36257;46.052;12.540;2023-03-14T01:51:02;10.60;99.90
40932;DHT22;36257;46.052;12.540;2023-03-14T01:53:30;10.60;99.90
40932;DHT22;36257;46.052;12.540;2023-03-14T01:55:57;10.70;99.90
40932;DHT22;36257;46.052;12.540;2023-03-14T01:58:24;10.60;99.90
40932;DHT22;36257;46.052;12.540;2023-03-14T02:00:53;10.50;99.90
40932;DHT22;36257;46.052;12.540;2023-03-14T02:03:20;10.50;99.90
40932;DHT22;36257;46.052;12.540;2023-03-14T02:05:48;10.50;99.90
40932;DHT22;36257;46.052;12.540;2023-03-14T02:08:18;10.40;99.90
40932;DHT22;36257;46.052;12.540;2023-03-14T02:10:47;10.40;99.90
40932;DHT22;36257;46.052;12.540;2023-03-14T02:13:15;10.50;99.90
40932;DHT22;36257;46.052;12.540;2023-03-14T02:15:42;10.50;99.90
40932;DHT22;36257;46.052;12.540;2023-03-14T02:18:09;10.50;99.90
40932;DHT22;36257;46.052;12.540;2023-03-14T02:23:15;10.70;99.90
40932;DHT22;36257;46.052;12.540;2023-03-14T02:28:16;10.80;99.90
40932;DHT22;36257;46.052;12.540;2023-03-14T02:30:41;10.70;99.90
40932;DHT22;36257;46.052;12.540;2023-03-14T02:33:13;10.70;99.90
40932;DHT22;36257;46.052;12.540;2023-03-14T02:35:56;10.60;99.90
40932;DHT22;36257;46.052;12.540;2023-03-14T02:40:54;10.50;99.90
40932;DHT22;36257;46.052;12.540;2023-03-14T02:43:20;10.50;99.90
40932;DHT22;36257;46.052;12.540;2023-03-14T02:45:48;10.50;99.90
40932;DHT22;36257;46.052;12.540;2023-03-14T02:48:35;10.50;99.90
40932;DHT22;36257;46.052;12.540;2023-03-14T02:51:02;10.60;99.90
40932;DHT22;36257;46.052;12.540;2023-03-14T02:53:31;10.70;99.90
40932;DHT22;36257;46.052;12.540;2023-03-14T02:55:57;10.70;99.90
40932;DHT22;36257;46.052;12.540;2023-03-14T02:58:23;10.70;99.90
40932;DHT22;36257;46.052;12.540;2023-03-14T03:00:49;10.80;99.90
40932;DHT22;36257;46.052;12.540;2023-03-14T03:03:14;10.80;99.90
40932;DHT22;36257;46.052;12.540;2023-03-14T03:05:40;10.80;99.90
40932;DHT22;36257;46.052;12.540;2023-03-14T03:08:06;10.80;99.90
40932;DHT22;36257;46.052;12.540;2023-03-14T03:10:32;10.80;99.90
40932;DHT22;36257;46.052;12.540;2023-03-14T03:12:58;10.80;99.90
40932;DHT22;36257;46.052;12.540;2023-03-14T03:15:24;10.80;99.90
40932;DHT22;36257;46.052;12.540;2023-03-14T03:17:49;10.70;99.90
40932;DHT22;36257;46.052;12.540;2023-03-14T03:20:15;10.60;99.90
40932;DHT22;36257;46.052;12.540;2023-03-14T03:22:41;10.60;99.90
40932;DHT22;36257;46.052;12.540;2023-03-14T03:25:07;10.50;99.90
40932;DHT22;36257;46.052;12.540;2023-03-14T03:27:36;10.50;99.90
40932;DHT22;36257;46.052;12.540;2023-03-14T03:30:04;10.50;99.90
40932;DHT22;36257;46.052;12.540;2023-03-14T03:32:31;10.60;99.90
40932;DHT22;36257;46.052;12.540;2023-03-14T03:34:56;10.60;99.90
40932;DHT22;36257;46.052;12.540;2023-03-14T03:37:22;10.60;99.90
40932;DHT22;36257;46.052;12.540;2023-03-14T03:39:50;10.70;99.90
40932;DHT22;36257;46.052;12.540;2023-03-14T03:42:16;10.70;99.90
40932;DHT22;36257;46.052;12.540;2023-03-14T03:44:42;10.70;99.90
40932;DHT22;36257;46.052;12.540;2023-03-14T03:47:07;10.70;99.90
40932;DHT22;36257;46.052;12.540;2023-03-14T03:49:33;10.70;99.90
40932;DHT22;36257;46.052;12.540;2023-03-14T03:51:59;10.70;99.90
40932;DHT22;36257;46.052;12.540;2023-03-14T03:54:25;10.70;99.90
40932;DHT22;36257;46.052;12.540;2023-03-14T03:56:51;10.80;99.90
40932;DHT22;36257;46.052;12.540;2023-03-14T03:59:17;10.80;99.90
40932;DHT22;36257;46.052;12.540;2023-03-14T04:01:43;10.80;99.90
40932;DHT22;36257;46.052;12.540;2023-03-14T04:04:08;10.80;99.90
40932;DHT22;36257;46.052;12.540;2023-03-14T04:06:34;10.80;99.90
40932;DHT22;36257;46.052;12.540;2023-03-14T04:09:00;10.80;99.90
40932;DHT22;36257;46.052;12.540;2023-03-14T04:11:25;10.70;99.90
40932;DHT22;36257;46.052;12.540;2023-03-14T04:13:51;10.70;99.90
40932;DHT22;36257;46.052;12.540;2023-03-14T04:16:20;10.60;99.90
40932;DHT22;36257;46.052;12.540;2023-03-14T04:18:46;10.50;99.90
40932;DHT22;36257;46.052;12.540;2023-03-14T04:21:12;10.40;99.90
40932;DHT22;36257;46.052;12.540;2023-03-14T04:23:37;10.40;99.90
40932;DHT22;36257;46.052;12.540;2023-03-14T04:26:03;10.50;99.90
40932;DHT22;36257;46.052;12.540;2023-03-14T04:28:29;10.60;99.90
40932;DHT22;36257;46.052;12.540;2023-03-14T04:30:55;10.60;99.90
40932;DHT22;36257;46.052;12.540;2023-03-14T04:33:20;10.70;99.90
40932;DHT22;36257;46.052;12.540;2023-03-14T04:35:46;10.70;99.90
40932;DHT22;36257;46.052;12.540;2023-03-14T04:38:13;10.70;99.90
40932;DHT22;36257;46.052;12.540;2023-03-14T04:40:42;10.70;99.90
40932;DHT22;36257;46.052;12.540;2023-03-14T04:43:10;10.70;99.90
40932;DHT22;36257;46.052;12.540;2023-03-14T04:45:37;10.70;99.90
40932;DHT22;36257;46.052;12.540;2023-03-14T04:48:03;10.60;99.90
40932;DHT22;36257;46.052;12.540;2023-03-14T04:50:28;10.60;99.90
40932;DHT22;36257;46.052;12.540;2023-03-14T04:52:54;10.50;99.90
40932;DHT22;36257;46.052;12.540;2023-03-14T04:55:19;10.50;99.90
40932;DHT22;36257;46.052;12.540;2023-03-14T04:57:45;10.50;99.90
40932;DHT22;36257;46.052;12.540;2023-03-14T05:00:11;10.40;99.90
40932;DHT22;36257;46.052;12.540;2023-03-14T05:02:37;10.40;99.90
40932;DHT22;36257;46.052;12.540;2023-03-14T05:05:03;10.40;99.90
40932;DHT22;36257;46.052;12.540;2023-03-14T05:07:29;10.40;99.90
40932;DHT22;36257;46.052;12.540;2023-03-14T05:09:55;10.40;99.90
40932;DHT22;36257;46.052;12.540;2023-03-14T05:12:20;10.40;99.90
40932;DHT22;36257;46.052;12.540;2023-03-14T05:14:46;10.50;99.90
40932;DHT22;36257;46.052;12.540;2023-03-14T05:17:12;10.60;99.90
40932;DHT22;36257;46.052;12.540;2023-03-14T05:19:40;10.60;99.90
40932;DHT22;36257;46.052;12.540;2023-03-14T05:22:06;10.50;99.90
40932;DHT22;36257;46.052;12.540;2023-03-14T05:24:33;10.50;99.90
40932;DHT22;36257;46.052;12.540;2023-03-14T05:26:58;10.50;99.90
40932;DHT22;36257;46.052;12.540;2023-03-14T05:29:24;10.60;99.90
40932;DHT22;36257;46.052;12.540;2023-03-14T05:31:50;10.60;99.90
40932;DHT22;36257;46.052;12.540;2023-03-14T05:34:15;10.50;99.90
40932;DHT22;36257;46.052;12.540;2023-03-14T05:36:41;10.40;99.90
40932;DHT22;36257;46.052;12.540;2023-03-14T05:39:06;10.40;99.90
40932;DHT22;36257;46.052;12.540;2023-03-14T05:41:32;10.40;99.90
40932;DHT22;36257;46.052;12.540;2023-03-14T05:43:58;10.40;99.90
40932;DHT22;36257;46.052;12.540;2023-03-14T05:46:24;10.40;99.90
40932;DHT22;36257;46.052;12.540;2023-03-14T05:48:49;10.40;99.90
40932;DHT22;36257;46.052;12.540;2023-03-14T05:51:15;10.40;99.90
40932;DHT22;36257;46.052;12.540;2023-03-14T05:53:41;10.40;99.90
40932;DHT22;36257;46.052;12.540;2023-03-14T05:56:07;10.40;99.90
40932;DHT22;36257;46.052;12.540;2023-03-14T05:58:32;10.40;99.90
40932;DHT22;36257;46.052;12.540;2023-03-14T06:01:02;10.40;99.90
40932;DHT22;36257;46.052;12.540;2023-03-14T06:03:28;10.40;99.90
40932;DHT22;36257;46.052;12.540;2023-03-14T06:05:54;10.40;99.90
40932;DHT22;36257;46.052;12.540;2023-03-14T06:08:20;10.40;99.90
40932;DHT22;36257;46.052;12.540;2023-03-14T06:10:45;10.40;99.90
40932;DHT22;36257;46.052;12.540;2023-03-14T06:13:11;10.40;99.90
40932;DHT22;36257;46.052;12.540;2023-03-14T06:15:37;10.40;99.90
40932;DHT22;36257;46.052;12.540;2023-03-14T06:18:03;10.40;99.90
40932;DHT22;36257;46.052;12.540;2023-03-14T06:20:29;10.40;99.90
40932;DHT22;36257;46.052;12.540;2023-03-14T06:22:54;10.40;99.90
40932;DHT22;36257;46.052;12.540;2023-03-14T06:25:20;10.40;99.90
40932;DHT22;36257;46.052;12.540;2023-03-14T06:27:46;10.40;99.90
40932;DHT22;36257;46.052;12.540;2023-03-14T06:30:11;10.40;99.90
40932;DHT22;36257;46.052;12.540;2023-03-14T06:32:37;10.40;99.90
40932;DHT22;36257;46.052;12.540;2023-03-14T06:35:03;10.50;99.90
40932;DHT22;36257;46.052;12.540;2023-03-14T06:37:29;10.40;99.90
40932;DHT22;36257;46.052;12.540;2023-03-14T06:39:55;10.40;99.90
40932;DHT22;36257;46.052;12.540;2023-03-14T06:42:21;10.50;99.90
40932;DHT22;36257;46.052;12.540;2023-03-14T06:44:46;10.50;99.90
40932;DHT22;36257;46.052;12.540;2023-03-14T06:47:12;10.50;99.90
40932;DHT22;36257;46.052;12.540;2023-03-14T06:49:38;10.60;99.90
40932;DHT22;36257;46.052;12.540;2023-03-14T06:52:03;10.50;99.90
40932;DHT22;36257;46.052;12.540;2023-03-14T06:54:29;10.50;99.90
40932;DHT22;36257;46.052;12.540;2023-03-14T06:56:55;10.60;99.90
40932;DHT22;36257;46.052;12.540;2023-03-14T06:59:20;10.60;99.90
40932;DHT22;36257;46.052;12.540;2023-03-14T07:01:46;10.50;99.90
40932;DHT22;36257;46.052;12.540;2023-03-14T07:04:13;10.50;99.90
40932;DHT22;36257;46.052;12.540;2023-03-14T07:06:39;10.60;99.90
40932;DHT22;36257;46.052;12.540;2023-03-14T07:09:10;10.60;99.90
40932;DHT22;36257;46.052;12.540;2023-03-14T07:11:35;10.60;99.90
40932;DHT22;36257;46.052;12.540;2023-03-14T07:14:01;10.60;99.90
40932;DHT22;36257;46.052;12.540;2023-03-14T07:16:26;10.60;99.90
40932;DHT22;36257;46.052;12.540;2023-03-14T07:18:54;10.70;99.90
40932;DHT22;36257;46.052;12.540;2023-03-14T07:21:19;10.80;99.90
40932;DHT22;36257;46.052;12.540;2023-03-14T07:23:45;10.80;99.90
40932;DHT22;36257;46.052;12.540;2023-03-14T07:26:11;10.70;99.90
40932;DHT22;36257;46.052;12.540;2023-03-14T07:28:36;10.70;99.90
40932;DHT22;36257;46.052;12.540;2023-03-14T07:31:02;10.60;99.90
40932;DHT22;36257;46.052;12.540;2023-03-14T07:33:28;10.60;99.90
40932;DHT22;36257;46.052;12.540;2023-03-14T07:35:53;10.60;99.90
40932;DHT22;36257;46.052;12.540;2023-03-14T07:38:19;10.60;99.90
40932;DHT22;36257;46.052;12.540;2023-03-14T07:40:45;10.60;99.90
40932;DHT22;36257;46.052;12.540;2023-03-14T07:43:10;10.60;99.90
40932;DHT22;36257;46.052;12.540;2023-03-14T07:45:45;10.70;99.90
40932;DHT22;36257;46.052;12.540;2023-03-14T07:48:11;10.60;99.90
40932;DHT22;36257;46.052;12.540;2023-03-14T07:50:37;10.60;99.90
40932;DHT22;36257;46.052;12.540;2023-03-14T07:53:05;10.60;99.90
40932;DHT22;36257;46.052;12.540;2023-03-14T07:55:31;10.60;99.90
40932;DHT22;36257;46.052;12.540;2023-03-14T07:57:57;10.70;99.90
40932;DHT22;36257;46.052;12.540;2023-03-14T08:00:22;10.80;99.90
40932;DHT22;36257;46.052;12.540;2023-03-14T08:02:48;10.70;99.90
40932;DHT22;36257;46.052;12.540;2023-03-14T08:05:14;10.70;99.90
40932;DHT22;36257;46.052;12.540;2023-03-14T08:08:00;10.70;99.90
40932;DHT22;36257;46.052;12.540;2023-03-14T08:10:25;10.80;99.90
40932;DHT22;36257;46.052;12.540;2023-03-14T08:12:54;10.80;99.90
40932;DHT22;36257;46.052;12.540;2023-03-14T08:15:22;10.70;99.90
40932;DHT22;36257;46.052;12.540;2023-03-14T08:17:48;10.80;99.90
40932;DHT22;36257;46.052;12.540;2023-03-14T08:20:20;10.80;99.90
40932;DHT22;36257;46.052;12.540;2023-03-14T08:22:46;10.80;99.90
40932;DHT22;36257;46.052;12.540;2023-03-14T08:25:12;10.90;99.90
40932;DHT22;36257;46.052;12.540;2023-03-14T08:27:38;10.80;99.90
40932;DHT22;36257;46.052;12.540;2023-03-14T08:30:06;10.80;99.90
40932;DHT22;36257;46.052;12.540;2023-03-14T08:32:32;10.80;99.90
40932;DHT22;36257;46.052;12.540;2023-03-14T08:34:58;10.80;99.90
40932;DHT22;36257;46.052;12.540;2023-03-14T08:37:23;10.90;99.90
40932;DHT22;36257;46.052;12.540;2023-03-14T08:39:51;10.90;99.90
40932;DHT22;36257;46.052;12.540;2023-03-14T08:42:17;10.90;99.90
40932;DHT22;36257;46.052;12.540;2023-03-14T08:44:43;10.90;99.90
40932;DHT22;36257;46.052;12.540;2023-03-14T08:47:09;10.90;99.90
40932;DHT22;36257;46.052;12.540;2023-03-14T08:49:34;10.90;99.90
40932;DHT22;36257;46.052;12.540;2023-03-14T08:52:04;11.00;99.90
40932;DHT22;36257;46.052;12.540;2023-03-14T08:54:30;11.10;99.90
40932;DHT22;36257;46.052;12.540;2023-03-14T08:56:57;11.10;99.90
40932;DHT22;36257;46.052;12.540;2023-03-14T08:59:23;11.10;99.90
40932;DHT22;36257;46.052;12.540;2023-03-14T09:01:48;11.20;99.90
40932;DHT22;36257;46.052;12.540;2023-03-14T09:04:14;11.20;99.90
40932;DHT22;36257;46.052;12.540;2023-03-14T09:06:40;11.20;99.90
40932;DHT22;36257;46.052;12.540;2023-03-14T09:09:06;11.20;99.90
40932;DHT22;36257;46.052;12.540;2023-03-14T09:11:32;11.20;99.90
40932;DHT22;36257;46.052;12.540;2023-03-14T09:13:57;11.20;99.90
40932;DHT22;36257;46.052;12.540;2023-03-14T09:16:24;11.30;99.90
40932;DHT22;36257;46.052;12.540;2023-03-14T09:18:49;11.30;99.90
40932;DHT22;36257;46.052;12.540;2023-03-14T09:21:15;11.40;99.90
40932;DHT22;36257;46.052;12.540;2023-03-14T09:23:41;11.40;99.90
40932;DHT22;36257;46.052;12.540;2023-03-14T09:26:07;11.50;99.90
40932;DHT22;36257;46.052;12.540;2023-03-14T09:28:33;11.50;99.90
40932;DHT22;36257;46.052;12.540;2023-03-14T09:31:05;11.50;99.90
40932;DHT22;36257;46.052;12.540;2023-03-14T09:33:31;11.50;99.90
40932;DHT22;36257;46.052;12.540;2023-03-14T09:36:00;11.60;99.90
40932;DHT22;36257;46.052;12.540;2023-03-14T09:38:26;11.60;99.90
40932;DHT22;36257;46.052;12.540;2023-03-14T09:40:53;11.60;99.90
40932;DHT22;36257;46.052;12.540;2023-03-14T09:43:20;11.70;99.90
40932;DHT22;36257;46.052;12.540;2023-03-14T09:45:47;11.70;99.90
40932;DHT22;36257;46.052;12.540;2023-03-14T09:48:19;11.70;99.90
40932;DHT22;36257;46.052;12.540;2023-03-14T09:50:49;11.70;99.90
40932;DHT22;36257;46.052;12.540;2023-03-14T09:53:22;11.80;99.90
40932;DHT22;36257;46.052;12.540;2023-03-14T09:55:50;11.80;99.90
40932;DHT22;36257;46.052;12.540;2023-03-14T09:58:21;11.80;99.90
40932;DHT22;36257;46.052;12.540;2023-03-14T10:00:48;11.80;99.90
40932;DHT22;36257;46.052;12.540;2023-03-14T10:03:22;11.80;99.90
40932;DHT22;36257;46.052;12.540;2023-03-14T10:06:11;11.90;99.90
40932;DHT22;36257;46.052;12.540;2023-03-14T10:08:41;12.00;99.90
40932;DHT22;36257;46.052;12.540;2023-03-14T10:11:15;12.00;99.90
40932;DHT22;36257;46.052;12.540;2023-03-14T10:13:48;12.00;99.90
40932;DHT22;36257;46.052;12.540;2023-03-14T10:16:14;11.90;99.90
40932;DHT22;36257;46.052;12.540;2023-03-14T10:18:45;12.00;99.90
40932;DHT22;36257;46.052;12.540;2023-03-14T10:21:28;12.00;99.90
40932;DHT22;36257;46.052;12.540;2023-03-14T10:24:07;12.00;99.90
40932;DHT22;36257;46.052;12.540;2023-03-14T10:26:34;12.10;99.90
40932;DHT22;36257;46.052;12.540;2023-03-14T10:29:09;12.00;99.90
40932;DHT22;36257;46.052;12.540;2023-03-14T10:31:55;12.00;99.90
40932;DHT22;36257;46.052;12.540;2023-03-14T10:34:34;12.10;99.90
40932;DHT22;36257;46.052;12.540;2023-03-14T10:37:22;12.00;99.90
40932;DHT22;36257;46.052;12.540;2023-03-14T10:39:52;12.00;99.90
40932;DHT22;36257;46.052;12.540;2023-03-14T10:42:24;12.00;99.90
40932;DHT22;36257;46.052;12.540;2023-03-14T10:44:58;12.10;99.90
40932;DHT22;36257;46.052;12.540;2023-03-14T10:47:26;12.10;99.90
40932;DHT22;36257;46.052;12.540;2023-03-14T10:49:54;12.10;99.90
40932;DHT22;36257;46.052;12.540;2023-03-14T10:52:21;12.10;99.90
40932;DHT22;36257;46.052;12.540;2023-03-14T10:55:09;12.10;99.90
40932;DHT22;36257;46.052;12.540;2023-03-14T10:57:42;12.10;99.90
40932;DHT22;36257;46.052;12.540;2023-03-14T11:00:23;12.10;99.90
40932;DHT22;36257;46.052;12.540;2023-03-14T11:03:24;12.00;99.90
40932;DHT22;36257;46.052;12.540;2023-03-14T11:05:57;12.10;99.90
40932;DHT22;36257;46.052;12.540;2023-03-14T11:11:28;12.00;99.90
40932;DHT22;36257;46.052;12.540;2023-03-14T11:17:19;12.00;99.90
40932;DHT22;36257;46.052;12.540;2023-03-14T11:22:29;12.00;99.90
40932;DHT22;36257;46.052;12.540;2023-03-14T11:30:39;11.90;99.90
40932;DHT22;36257;46.052;12.540;2023-03-14T11:33:17;12.00;99.90
40932;DHT22;36257;46.052;12.540;2023-03-14T11:36:02;12.10;99.90
40932;DHT22;36257;46.052;12.540;2023-03-14T11:41:02;12.20;99.90
40932;DHT22;36257;46.052;12.540;2023-03-14T11:43:34;12.30;99.90
40932;DHT22;36257;46.052;12.540;2023-03-14T11:46:17;12.40;99.90
40932;DHT22;36257;46.052;12.540;2023-03-14T11:51:37;12.40;99.90
40932;DHT22;36257;46.052;12.540;2023-03-14T11:56:46;12.30;99.90
40932;DHT22;36257;46.052;12.540;2023-03-14T11:59:18;12.30;99.90
40932;DHT22;36257;46.052;12.540;2023-03-14T12:07:21;12.30;99.90
40932;DHT22;36257;46.052;12.540;2023-03-14T12:09:49;12.30;99.90
40932;DHT22;36257;46.052;12.540;2023-03-14T12:12:20;12.10;99.90
40932;DHT22;36257;46.052;12.540;2023-03-14T12:14:56;12.10;99.90
40932;DHT22;36257;46.052;12.540;2023-03-14T12:17:41;12.10;99.90
40932;DHT22;36257;46.052;12.540;2023-03-14T12:25:21;12.20;99.90
40932;DHT22;36257;46.052;12.540;2023-03-14T12:30:39;12.20;99.90
40932;DHT22;36257;46.052;12.540;2023-03-14T12:35:45;12.30;99.90
40932;DHT22;36257;46.052;12.540;2023-03-14T12:41:06;12.20;99.90
40932;DHT22;36257;46.052;12.540;2023-03-14T12:43:37;12.20;99.90
40932;DHT22;36257;46.052;12.540;2023-03-14T12:46:24;12.20;99.90
40932;DHT22;36257;46.052;12.540;2023-03-14T12:51:21;12.10;99.90
40932;DHT22;36257;46.052;12.540;2023-03-14T12:59:36;11.90;99.90
40932;DHT22;36257;46.052;12.540;2023-03-14T13:04:44;11.80;99.90
40932;DHT22;36257;46.052;12.540;2023-03-14T13:07:31;11.80;99.90
40932;DHT22;36257;46.052;12.540;2023-03-14T13:17:48;12.20;99.90
40932;DHT22;36257;46.052;12.540;2023-03-14T13:20:35;12.30;99.90
40932;DHT22;36257;46.052;12.540;2023-03-14T13:23:02;12.30;99.90
40932;DHT22;36257;46.052;12.540;2023-03-14T13:25:35;12.30;99.90
40932;DHT22;36257;46.052;12.540;2023-03-14T13:28:01;12.40;99.90
40932;DHT22;36257;46.052;12.540;2023-03-14T13:30:35;12.40;99.90
40932;DHT22;36257;46.052;12.540;2023-03-14T13:33:04;12.50;99.90
40932;DHT22;36257;46.052;12.540;2023-03-14T13:35:45;12.60;99.90
40932;DHT22;36257;46.052;12.540;2023-03-14T13:38:25;12.60;99.90
40932;DHT22;36257;46.052;12.540;2023-03-14T13:40:54;12.50;99.90
40932;DHT22;36257;46.052;12.540;2023-03-14T13:43:28;12.50;99.90
40932;DHT22;36257;46.052;12.540;2023-03-14T13:46:19;12.60;99.90
40932;DHT22;36257;46.052;12.540;2023-03-14T13:51:20;12.80;99.90
40932;DHT22;36257;46.052;12.540;2023-03-14T13:53:47;12.90;99.90
40932;DHT22;36257;46.052;12.540;2023-03-14T13:56:14;13.10;99.90
40932;DHT22;36257;46.052;12.540;2023-03-14T13:58:40;13.10;99.90
40932;DHT22;36257;46.052;12.540;2023-03-14T14:01:15;13.20;99.90
40932;DHT22;36257;46.052;12.540;2023-03-14T14:03:44;13.30;99.90
40932;DHT22;36257;46.052;12.540;2023-03-14T14:06:27;13.30;99.90
40932;DHT22;36257;46.052;12.540;2023-03-14T14:08:55;13.40;99.90
40932;DHT22;36257;46.052;12.540;2023-03-14T14:11:38;13.50;99.90
40932;DHT22;36257;46.052;12.540;2023-03-14T14:14:16;13.60;99.90
40932;DHT22;36257;46.052;12.540;2023-03-14T14:16:44;13.80;99.90
40932;DHT22;36257;46.052;12.540;2023-03-14T14:19:13;13.90;99.90
40932;DHT22;36257;46.052;12.540;2023-03-14T14:21:39;14.10;99.90
40932;DHT22;36257;46.052;12.540;2023-03-14T14:24:05;14.30;99.90
40932;DHT22;36257;46.052;12.540;2023-03-14T14:26:31;14.50;99.70
40932;DHT22;36257;46.052;12.540;2023-03-14T14:29:03;14.60;98.80
40932;DHT22;36257;46.052;12.540;2023-03-14T14:31:29;14.60;98.00
40932;DHT22;36257;46.052;12.540;2023-03-14T14:34:01;14.50;98.10
40932;DHT22;36257;46.052;12.540;2023-03-14T14:36:47;14.50;97.10
40932;DHT22;36257;46.052;12.540;2023-03-14T14:39:20;14.50;97.60
40932;DHT22;36257;46.052;12.540;2023-03-14T14:41:49;14.30;97.60
40932;DHT22;36257;46.052;12.540;2023-03-14T14:44:18;14.30;97.70
40932;DHT22;36257;46.052;12.540;2023-03-14T14:46:46;14.20;98.10
40932;DHT22;36257;46.052;12.540;2023-03-14T14:49:18;14.10;98.40
40932;DHT22;36257;46.052;12.540;2023-03-14T14:51:49;14.10;98.30
40932;DHT22;36257;46.052;12.540;2023-03-14T14:54:18;14.00;98.70
40932;DHT22;36257;46.052;12.540;2023-03-14T14:56:52;13.90;98.60
40932;DHT22;36257;46.052;12.540;2023-03-14T14:59:44;13.80;99.40
40932;DHT22;36257;46.052;12.540;2023-03-14T15:02:27;13.80;99.20
40932;DHT22;36257;46.052;12.540;2023-03-14T15:04:53;13.80;99.20
40932;DHT22;36257;46.052;12.540;2023-03-14T15:07:19;13.80;99.80
40932;DHT22;36257;46.052;12.540;2023-03-14T15:09:44;13.80;99.30
40932;DHT22;36257;46.052;12.540;2023-03-14T15:12:10;13.70;99.70
40932;DHT22;36257;46.052;12.540;2023-03-14T15:14:36;13.70;99.10
40932;DHT22;36257;46.052;12.540;2023-03-14T15:17:02;13.60;98.50
40932;DHT22;36257;46.052;12.540;2023-03-14T15:19:28;13.50;99.60
40932;DHT22;36257;46.052;12.540;2023-03-14T15:21:58;13.30;99.00
40932;DHT22;36257;46.052;12.540;2023-03-14T15:24:23;13.20;99.90
40932;DHT22;36257;46.052;12.540;2023-03-14T15:26:49;13.30;99.90
40932;DHT22;36257;46.052;12.540;2023-03-14T15:29:15;13.30;99.90
40932;DHT22;36257;46.052;12.540;2023-03-14T15:31:42;13.30;99.90
40932;DHT22;36257;46.052;12.540;2023-03-14T15:34:09;13.20;99.90
40932;DHT22;36257;46.052;12.540;2023-03-14T15:36:36;13.10;99.90
40932;DHT22;36257;46.052;12.540;2023-03-14T15:39:03;13.10;99.90
40932;DHT22;36257;46.052;12.540;2023-03-14T15:41:30;13.10;99.90
40932;DHT22;36257;46.052;12.540;2023-03-14T15:43:58;13.10;99.90
40932;DHT22;36257;46.052;12.540;2023-03-14T15:46:24;13.10;99.90
40932;DHT22;36257;46.052;12.540;2023-03-14T15:48:51;13.10;99.90
40932;DHT22;36257;46.052;12.540;2023-03-14T15:51:17;13.10;99.90
40932;DHT22;36257;46.052;12.540;2023-03-14T15:53:43;13.10;99.90
40932;DHT22;36257;46.052;12.540;2023-03-14T15:56:27;13.00;99.90
40932;DHT22;36257;46.052;12.540;2023-03-14T15:58:56;13.00;99.90
40932;DHT22;36257;46.052;12.540;2023-03-14T16:01:22;13.00;99.90
40932;DHT22;36257;46.052;12.540;2023-03-14T16:03:47;12.90;99.90
40932;DHT22;36257;46.052;12.540;2023-03-14T16:06:14;12.90;99.90
40932;DHT22;36257;46.052;12.540;2023-03-14T16:08:41;12.90;99.90
40932;DHT22;36257;46.052;12.540;2023-03-14T16:11:09;12.90;99.90
40932;DHT22;36257;46.052;12.540;2023-03-14T16:13:34;12.80;99.90
40932;DHT22;36257;46.052;12.540;2023-03-14T16:16:03;12.80;99.90
40932;DHT22;36257;46.052;12.540;2023-03-14T16:18:31;12.80;99.90
40932;DHT22;36257;46.052;12.540;2023-03-14T16:20:59;12.70;99.90
40932;DHT22;36257;46.052;12.540;2023-03-14T16:23:26;12.70;99.90
40932;DHT22;36257;46.052;12.540;2023-03-14T16:25:55;12.60;99.90
40932;DHT22;36257;46.052;12.540;2023-03-14T16:28:21;12.60;99.90
40932;DHT22;36257;46.052;12.540;2023-03-14T16:30:47;12.60;99.90
40932;DHT22;36257;46.052;12.540;2023-03-14T16:33:15;12.50;99.90
40932;DHT22;36257;46.052;12.540;2023-03-14T16:35:40;12.60;99.90
40932;DHT22;36257;46.052;12.540;2023-03-14T16:38:07;12.50;99.90